sensor_id;sensor_type;location;lat;lon;timestamp;pressure;altitude;pressure_sealevel;temperature;humidity
34235;BME280;20500;49.856;20.290;2022-09-29T00:00:39;97441.65;;;11.84;74.24
34235;BME280;20500;49.856;20.290;2022-09-29T00:03:46;97445.61;;;11.86;74.14
34235;BME280;20500;49.856;20.290;2022-09-29T00:06:50;97450.40;;;11.87;74.43
34235;BME280;20500;49.856;20.290;2022-09-29T00:09:56;97444.90;;;11.87;74.50
34235;BME280;20500;49.856;20.290;2022-09-29T00:13:03;97442.79;;;11.88;74.58
34235;BME280;20500;49.856;20.290;2022-09-29T00:16:10;97445.39;;;11.90;74.74
34235;BME280;20500;49.856;20.290;2022-09-29T00:19:16;97447.91;;;11.90;74.63
34235;BME280;20500;49.856;20.290;2022-09-29T00:22:23;97447.94;;;11.90;74.78
34235;BME280;20500;49.856;20.290;2022-09-29T00:25:29;97443.54;;;11.90;74.77
34235;BME280;20500;49.856;20.290;2022-09-29T00:28:36;97440.48;;;11.90;74.83
34235;BME280;20500;49.856;20.290;2022-09-29T00:31:43;97436.59;;;11.89;74.89
34235;BME280;20500;49.856;20.290;2022-09-29T00:34:50;97439.27;;;11.89;74.94
34235;BME280;20500;49.856;20.290;2022-09-29T00:37:56;97443.80;;;11.89;75.13
34235;BME280;20500;49.856;20.290;2022-09-29T00:41:03;97450.88;;;11.91;75.13
34235;BME280;20500;49.856;20.290;2022-09-29T00:47:50;97448.59;;;11.92;75.37
34235;BME280;20500;49.856;20.290;2022-09-29T00:50:57;97446.13;;;11.92;75.39
34235;BME280;20500;49.856;20.290;2022-09-29T00:54:05;97447.59;;;11.92;75.47
34235;BME280;20500;49.856;20.290;2022-09-29T00:57:16;97448.52;;;11.91;75.52
34235;BME280;20500;49.856;20.290;2022-09-29T01:00:25;97452.64;;;11.90;75.69
34235;BME280;20500;49.856;20.290;2022-09-29T01:03:34;97457.31;;;11.89;75.51
34235;BME280;20500;49.856;20.290;2022-09-29T01:06:44;97461.75;;;11.87;75.76
34235;BME280;20500;49.856;20.290;2022-09-29T01:09:53;97464.78;;;11.87;75.80
34235;BME280;20500;49.856;20.290;2022-09-29T01:13:02;97469.39;;;11.86;75.89
34235;BME280;20500;49.856;20.290;2022-09-29T01:16:09;97478.82;;;11.86;75.98
34235;BME280;20500;49.856;20.290;2022-09-29T01:19:18;97485.52;;;11.85;75.99
34235;BME280;20500;49.856;20.290;2022-09-29T01:22:49;97487.62;;;11.85;76.10
34235;BME280;20500;49.856;20.290;2022-09-29T01:26:25;97495.59;;;11.85;76.11
34235;BME280;20500;49.856;20.290;2022-09-29T01:33:21;97496.89;;;11.83;76.30
34235;BME280;20500;49.856;20.290;2022-09-29T01:36:38;97498.19;;;11.82;76.36
34235;BME280;20500;49.856;20.290;2022-09-29T01:39:56;97495.54;;;11.79;76.27
34235;BME280;20500;49.856;20.290;2022-09-29T01:43:08;97499.89;;;11.77;76.40
34235;BME280;20500;49.856;20.290;2022-09-29T01:46:21;97505.16;;;11.71;76.53
34235;BME280;20500;49.856;20.290;2022-09-29T01:49:31;97507.76;;;11.67;76.58
34235;BME280;20500;49.856;20.290;2022-09-29T01:52:43;97512.12;;;11.64;76.71
34235;BME280;20500;49.856;20.290;2022-09-29T01:55:54;97520.14;;;11.62;76.53
34235;BME280;20500;49.856;20.290;2022-09-29T01:59:09;97524.24;;;11.59;76.66
34235;BME280;20500;49.856;20.290;2022-09-29T02:02:20;97526.88;;;11.56;76.79
34235;BME280;20500;49.856;20.290;2022-09-29T02:05:30;97532.22;;;11.54;76.79
34235;BME280;20500;49.856;20.290;2022-09-29T02:08:39;97531.48;;;11.52;76.78
34235;BME280;20500;49.856;20.290;2022-09-29T02:11:50;97534.39;;;11.47;76.81
34235;BME280;20500;49.856;20.290;2022-09-29T02:14:59;97533.18;;;11.46;76.95
34235;BME280;20500;49.856;20.290;2022-09-29T02:18:11;97531.64;;;11.42;76.71
34235;BME280;20500;49.856;20.290;2022-09-29T02:21:20;97534.95;;;11.37;76.77
34235;BME280;20500;49.856;20.290;2022-09-29T02:24:27;97536.86;;;11.35;76.83
34235;BME280;20500;49.856;20.290;2022-09-29T02:27:33;97535.74;;;11.33;76.87
34235;BME280;20500;49.856;20.290;2022-09-29T02:30:41;97530.02;;;11.33;76.93
34235;BME280;20500;49.856;20.290;2022-09-29T02:33:47;97530.92;;;11.32;77.05
34235;BME280;20500;49.856;20.290;2022-09-29T02:36:58;97534.30;;;11.32;77.06
34235;BME280;20500;49.856;20.290;2022-09-29T02:40:27;97538.63;;;11.31;77.19
34235;BME280;20500;49.856;20.290;2022-09-29T02:44:07;97542.41;;;11.30;77.05
34235;BME280;20500;49.856;20.290;2022-09-29T02:47:39;97549.66;;;11.30;77.14
34235;BME280;20500;49.856;20.290;2022-09-29T02:50:55;97544.14;;;11.28;77.21
34235;BME280;20500;49.856;20.290;2022-09-29T02:54:17;97551.94;;;11.23;77.19
34235;BME280;20500;49.856;20.290;2022-09-29T02:57:30;97551.02;;;11.19;77.27
34235;BME280;20500;49.856;20.290;2022-09-29T03:00:40;97553.98;;;11.17;77.40
34235;BME280;20500;49.856;20.290;2022-09-29T03:03:48;97553.34;;;11.15;77.25
34235;BME280;20500;49.856;20.290;2022-09-29T03:06:54;97548.37;;;11.15;77.43
34235;BME280;20500;49.856;20.290;2022-09-29T03:10:00;97544.95;;;11.11;77.41
34235;BME280;20500;49.856;20.290;2022-09-29T03:13:07;97551.52;;;11.08;77.49
34235;BME280;20500;49.856;20.290;2022-09-29T03:16:11;97552.98;;;11.04;77.43
34235;BME280;20500;49.856;20.290;2022-09-29T03:19:17;97550.55;;;11.02;77.51
34235;BME280;20500;49.856;20.290;2022-09-29T03:22:22;97551.41;;;11.02;77.53
34235;BME280;20500;49.856;20.290;2022-09-29T03:25:28;97549.48;;;11.01;77.51
34235;BME280;20500;49.856;20.290;2022-09-29T03:28:35;97548.55;;;10.99;77.55
34235;BME280;20500;49.856;20.290;2022-09-29T03:31:41;97548.92;;;10.97;77.73
34235;BME280;20500;49.856;20.290;2022-09-29T03:34:48;97551.70;;;10.95;77.71
34235;BME280;20500;49.856;20.290;2022-09-29T03:37:52;97547.86;;;10.96;77.56
34235;BME280;20500;49.856;20.290;2022-09-29T03:41:02;97543.84;;;10.95;77.72
34235;BME280;20500;49.856;20.290;2022-09-29T03:44:08;97533.95;;;10.94;77.78
34235;BME280;20500;49.856;20.290;2022-09-29T03:47:14;97536.86;;;10.93;77.77
34235;BME280;20500;49.856;20.290;2022-09-29T03:50:21;97536.51;;;10.91;77.65
34235;BME280;20500;49.856;20.290;2022-09-29T03:53:28;97535.20;;;10.90;77.64
34235;BME280;20500;49.856;20.290;2022-09-29T03:56:35;97538.81;;;10.89;77.84
34235;BME280;20500;49.856;20.290;2022-09-29T03:59:41;97538.53;;;10.89;77.78
34235;BME280;20500;49.856;20.290;2022-09-29T04:02:49;97540.46;;;10.88;77.88
34235;BME280;20500;49.856;20.290;2022-09-29T04:05:54;97544.23;;;10.87;77.80
34235;BME280;20500;49.856;20.290;2022-09-29T04:09:00;97543.11;;;10.86;77.74
34235;BME280;20500;49.856;20.290;2022-09-29T04:12:07;97538.73;;;10.85;77.86
34235;BME280;20500;49.856;20.290;2022-09-29T04:15:13;97542.68;;;10.84;77.93
34235;BME280;20500;49.856;20.290;2022-09-29T04:18:19;97548.21;;;10.82;77.79
34235;BME280;20500;49.856;20.290;2022-09-29T04:21:26;97552.15;;;10.81;78.08
34235;BME280;20500;49.856;20.290;2022-09-29T04:24:32;97553.88;;;10.79;77.90
34235;BME280;20500;49.856;20.290;2022-09-29T04:27:37;97555.41;;;10.78;77.95
34235;BME280;20500;49.856;20.290;2022-09-29T04:30:44;97556.52;;;10.77;78.10
34235;BME280;20500;49.856;20.290;2022-09-29T04:33:50;97551.23;;;10.76;78.20
34235;BME280;20500;49.856;20.290;2022-09-29T04:36:56;97549.40;;;10.73;78.05
34235;BME280;20500;49.856;20.290;2022-09-29T04:40:01;97548.36;;;10.72;78.19
34235;BME280;20500;49.856;20.290;2022-09-29T04:43:08;97551.11;;;10.69;78.13
34235;BME280;20500;49.856;20.290;2022-09-29T04:46:13;97557.15;;;10.68;78.11
34235;BME280;20500;49.856;20.290;2022-09-29T04:49:20;97556.67;;;10.65;78.11
34235;BME280;20500;49.856;20.290;2022-09-29T04:52:26;97562.91;;;10.63;78.20
34235;BME280;20500;49.856;20.290;2022-09-29T04:55:33;97565.48;;;10.62;78.27
34235;BME280;20500;49.856;20.290;2022-09-29T04:58:37;97570.59;;;10.60;78.14
34235;BME280;20500;49.856;20.290;2022-09-29T05:01:44;97569.40;;;10.58;78.35
34235;BME280;20500;49.856;20.290;2022-09-29T05:04:50;97569.02;;;10.59;78.25
34235;BME280;20500;49.856;20.290;2022-09-29T05:07:56;97568.69;;;10.58;78.29
34235;BME280;20500;49.856;20.290;2022-09-29T05:11:05;97570.44;;;10.56;78.18
34235;BME280;20500;49.856;20.290;2022-09-29T05:14:12;97568.98;;;10.55;78.28
34235;BME280;20500;49.856;20.290;2022-09-29T05:17:18;97569.23;;;10.57;78.29
34235;BME280;20500;49.856;20.290;2022-09-29T05:20:23;97573.67;;;10.58;78.37
34235;BME280;20500;49.856;20.290;2022-09-29T05:23:36;97575.21;;;10.58;78.53
34235;BME280;20500;49.856;20.290;2022-09-29T05:26:40;97577.15;;;10.57;78.49
34235;BME280;20500;49.856;20.290;2022-09-29T05:29:46;97576.73;;;10.57;78.47
34235;BME280;20500;49.856;20.290;2022-09-29T05:32:51;97579.67;;;10.55;78.38
34235;BME280;20500;49.856;20.290;2022-09-29T05:36:05;97584.00;;;10.53;78.51
34235;BME280;20500;49.856;20.290;2022-09-29T05:39:11;97597.44;;;10.52;78.52
34235;BME280;20500;49.856;20.290;2022-09-29T05:42:18;97599.16;;;10.51;78.53
34235;BME280;20500;49.856;20.290;2022-09-29T05:45:24;97601.55;;;10.51;78.53
34235;BME280;20500;49.856;20.290;2022-09-29T05:48:31;97604.80;;;10.52;78.54
34235;BME280;20500;49.856;20.290;2022-09-29T05:51:37;97611.88;;;10.53;78.82
34235;BME280;20500;49.856;20.290;2022-09-29T05:54:43;97606.98;;;10.53;78.62
34235;BME280;20500;49.856;20.290;2022-09-29T05:57:50;97606.86;;;10.50;78.51
34235;BME280;20500;49.856;20.290;2022-09-29T06:00:56;97606.80;;;10.47;78.63
34235;BME280;20500;49.856;20.290;2022-09-29T06:04:03;97613.66;;;10.49;78.78
34235;BME280;20500;49.856;20.290;2022-09-29T06:07:09;97614.08;;;10.54;78.74
34235;BME280;20500;49.856;20.290;2022-09-29T06:10:15;97615.36;;;10.57;78.73
34235;BME280;20500;49.856;20.290;2022-09-29T06:13:22;97613.35;;;10.58;78.84
34235;BME280;20500;49.856;20.290;2022-09-29T06:16:27;97610.31;;;10.60;78.96
34235;BME280;20500;49.856;20.290;2022-09-29T06:19:33;97613.44;;;10.63;78.96
34235;BME280;20500;49.856;20.290;2022-09-29T06:22:38;97618.08;;;10.67;78.96
34235;BME280;20500;49.856;20.290;2022-09-29T06:25:44;97622.45;;;10.70;78.92
34235;BME280;20500;49.856;20.290;2022-09-29T06:28:51;97616.54;;;10.72;78.97
34235;BME280;20500;49.856;20.290;2022-09-29T06:31:57;97617.52;;;10.74;79.03
34235;BME280;20500;49.856;20.290;2022-09-29T06:35:05;97614.21;;;10.76;79.17
34235;BME280;20500;49.856;20.290;2022-09-29T06:38:29;97618.58;;;10.80;78.98
34235;BME280;20500;49.856;20.290;2022-09-29T06:41:33;97620.70;;;10.82;78.98
34235;BME280;20500;49.856;20.290;2022-09-29T06:44:40;97614.54;;;10.83;79.12
34235;BME280;20500;49.856;20.290;2022-09-29T06:47:44;97616.95;;;10.86;79.21
34235;BME280;20500;49.856;20.290;2022-09-29T06:50:51;97618.11;;;10.88;79.14
34235;BME280;20500;49.856;20.290;2022-09-29T06:54:12;97619.23;;;10.89;79.24
34235;BME280;20500;49.856;20.290;2022-09-29T06:57:18;97623.08;;;10.90;79.13
34235;BME280;20500;49.856;20.290;2022-09-29T07:00:25;97629.95;;;10.92;79.14
34235;BME280;20500;49.856;20.290;2022-09-29T07:03:31;97631.63;;;10.91;79.06
34235;BME280;20500;49.856;20.290;2022-09-29T07:06:38;97627.02;;;10.92;79.17
34235;BME280;20500;49.856;20.290;2022-09-29T07:09:44;97621.79;;;10.89;79.16
34235;BME280;20500;49.856;20.290;2022-09-29T07:12:51;97627.72;;;10.86;79.13
34235;BME280;20500;49.856;20.290;2022-09-29T07:16:04;97633.00;;;10.89;79.22
34235;BME280;20500;49.856;20.290;2022-09-29T07:19:11;97637.43;;;10.93;79.28
34235;BME280;20500;49.856;20.290;2022-09-29T07:22:18;97637.66;;;10.96;79.28
34235;BME280;20500;49.856;20.290;2022-09-29T07:25:24;97642.12;;;10.99;79.37
34235;BME280;20500;49.856;20.290;2022-09-29T07:28:51;97644.14;;;11.03;79.56
34235;BME280;20500;49.856;20.290;2022-09-29T07:31:58;97645.91;;;11.05;79.35
34235;BME280;20500;49.856;20.290;2022-09-29T07:35:05;97647.27;;;11.08;79.46
34235;BME280;20500;49.856;20.290;2022-09-29T07:38:11;97654.80;;;11.08;79.44
34235;BME280;20500;49.856;20.290;2022-09-29T07:41:16;97654.58;;;11.10;79.68
34235;BME280;20500;49.856;20.290;2022-09-29T07:44:23;97656.08;;;11.11;79.34
34235;BME280;20500;49.856;20.290;2022-09-29T07:47:29;97658.67;;;11.12;79.40
34235;BME280;20500;49.856;20.290;2022-09-29T07:50:35;97669.88;;;11.14;79.50
34235;BME280;20500;49.856;20.290;2022-09-29T07:53:42;97670.73;;;11.17;79.53
34235;BME280;20500;49.856;20.290;2022-09-29T07:56:49;97676.88;;;11.20;79.66
34235;BME280;20500;49.856;20.290;2022-09-29T07:59:53;97679.70;;;11.23;79.53
34235;BME280;20500;49.856;20.290;2022-09-29T08:03:04;97679.02;;;11.26;79.48
34235;BME280;20500;49.856;20.290;2022-09-29T08:06:11;97682.88;;;11.27;79.46
34235;BME280;20500;49.856;20.290;2022-09-29T08:09:18;97682.02;;;11.27;79.53
34235;BME280;20500;49.856;20.290;2022-09-29T08:12:28;97686.15;;;11.27;79.46
34235;BME280;20500;49.856;20.290;2022-09-29T08:15:47;97688.23;;;11.27;79.68
34235;BME280;20500;49.856;20.290;2022-09-29T08:18:53;97690.54;;;11.28;79.53
34235;BME280;20500;49.856;20.290;2022-09-29T08:22:00;97697.35;;;11.28;79.58
34235;BME280;20500;49.856;20.290;2022-09-29T08:25:05;97700.67;;;11.28;79.50
34235;BME280;20500;49.856;20.290;2022-09-29T08:28:11;97699.75;;;11.28;79.61
34235;BME280;20500;49.856;20.290;2022-09-29T08:31:30;97697.57;;;11.28;79.64
34235;BME280;20500;49.856;20.290;2022-09-29T08:34:37;97697.48;;;11.29;79.71
34235;BME280;20500;49.856;20.290;2022-09-29T08:37:44;97695.75;;;11.29;79.65
34235;BME280;20500;49.856;20.290;2022-09-29T08:40:50;97695.17;;;11.29;79.40
34235;BME280;20500;49.856;20.290;2022-09-29T08:43:58;97695.34;;;11.30;79.61
34235;BME280;20500;49.856;20.290;2022-09-29T08:47:15;97694.50;;;11.30;79.51
34235;BME280;20500;49.856;20.290;2022-09-29T08:50:28;97697.94;;;11.30;79.62
34235;BME280;20500;49.856;20.290;2022-09-29T08:53:41;97702.11;;;11.32;79.65
34235;BME280;20500;49.856;20.290;2022-09-29T08:57:02;97704.04;;;11.33;79.83
34235;BME280;20500;49.856;20.290;2022-09-29T09:00:12;97703.88;;;11.37;79.76
34235;BME280;20500;49.856;20.290;2022-09-29T09:03:34;97707.40;;;11.41;79.93
34235;BME280;20500;49.856;20.290;2022-09-29T09:06:53;97707.54;;;11.48;79.87
34235;BME280;20500;49.856;20.290;2022-09-29T09:10:11;97704.49;;;11.55;79.82
34235;BME280;20500;49.856;20.290;2022-09-29T09:13:30;97700.28;;;11.58;79.74
34235;BME280;20500;49.856;20.290;2022-09-29T09:16:47;97703.45;;;11.61;79.88
34235;BME280;20500;49.856;20.290;2022-09-29T09:20:07;97708.20;;;11.65;79.75
34235;BME280;20500;49.856;20.290;2022-09-29T09:23:21;97710.19;;;11.66;79.90
34235;BME280;20500;49.856;20.290;2022-09-29T09:26:34;97714.89;;;11.71;79.99
34235;BME280;20500;49.856;20.290;2022-09-29T09:29:43;97714.63;;;11.77;80.00
34235;BME280;20500;49.856;20.290;2022-09-29T09:32:52;97714.98;;;11.81;79.70
34235;BME280;20500;49.856;20.290;2022-09-29T09:36:04;97711.48;;;11.84;79.75
34235;BME280;20500;49.856;20.290;2022-09-29T09:39:15;97708.02;;;11.87;79.75
34235;BME280;20500;49.856;20.290;2022-09-29T09:42:26;97706.71;;;11.94;79.83
34235;BME280;20500;49.856;20.290;2022-09-29T09:45:36;97707.88;;;12.00;80.01
34235;BME280;20500;49.856;20.290;2022-09-29T09:48:51;97710.58;;;12.06;80.07
34235;BME280;20500;49.856;20.290;2022-09-29T09:52:00;97711.17;;;12.13;80.11
34235;BME280;20500;49.856;20.290;2022-09-29T09:55:14;97715.34;;;12.21;79.85
34235;BME280;20500;49.856;20.290;2022-09-29T09:58:29;97715.58;;;12.23;79.53
34235;BME280;20500;49.856;20.290;2022-09-29T10:01:40;97709.84;;;12.28;79.84
34235;BME280;20500;49.856;20.290;2022-09-29T10:04:50;97707.33;;;12.36;79.60
34235;BME280;20500;49.856;20.290;2022-09-29T10:07:57;97698.88;;;12.45;79.61
34235;BME280;20500;49.856;20.290;2022-09-29T10:11:09;97694.58;;;12.53;79.54
34235;BME280;20500;49.856;20.290;2022-09-29T10:14:23;97695.20;;;12.61;79.13
34235;BME280;20500;49.856;20.290;2022-09-29T10:17:36;97694.46;;;12.62;78.97
34235;BME280;20500;49.856;20.290;2022-09-29T10:20:44;97694.91;;;12.70;79.18
34235;BME280;20500;49.856;20.290;2022-09-29T10:23:54;97698.00;;;12.76;78.95
34235;BME280;20500;49.856;20.290;2022-09-29T10:27:02;97704.48;;;12.78;78.59
34235;BME280;20500;49.856;20.290;2022-09-29T10:30:20;97704.10;;;12.75;78.40
34235;BME280;20500;49.856;20.290;2022-09-29T10:33:28;97707.73;;;12.73;78.48
34235;BME280;20500;49.856;20.290;2022-09-29T10:36:49;97704.98;;;12.76;78.71
34235;BME280;20500;49.856;20.290;2022-09-29T10:40:12;97697.58;;;12.79;78.33
34235;BME280;20500;49.856;20.290;2022-09-29T10:43:24;97690.20;;;12.74;78.05
34235;BME280;20500;49.856;20.290;2022-09-29T10:46:47;97688.95;;;12.76;77.98
34235;BME280;20500;49.856;20.290;2022-09-29T10:50:13;97690.77;;;12.82;77.85
34235;BME280;20500;49.856;20.290;2022-09-29T10:53:25;97700.77;;;12.91;77.87
34235;BME280;20500;49.856;20.290;2022-09-29T10:56:36;97711.59;;;12.96;77.64
34235;BME280;20500;49.856;20.290;2022-09-29T10:59:52;97719.16;;;12.99;77.42
34235;BME280;20500;49.856;20.290;2022-09-29T11:03:03;97727.48;;;13.03;77.16
34235;BME280;20500;49.856;20.290;2022-09-29T11:06:12;97739.86;;;12.91;76.80
34235;BME280;20500;49.856;20.290;2022-09-29T11:09:34;97744.35;;;12.88;77.11
34235;BME280;20500;49.856;20.290;2022-09-29T11:12:41;97743.12;;;12.90;76.74
34235;BME280;20500;49.856;20.290;2022-09-29T11:15:49;97740.02;;;12.87;76.79
34235;BME280;20500;49.856;20.290;2022-09-29T11:18:58;97741.19;;;12.86;76.69
34235;BME280;20500;49.856;20.290;2022-09-29T11:26:16;97753.84;;;12.78;76.52
34235;BME280;20500;49.856;20.290;2022-09-29T11:29:38;97766.27;;;12.79;76.67
34235;BME280;20500;49.856;20.290;2022-09-29T11:33:05;97771.04;;;12.77;76.67
34235;BME280;20500;49.856;20.290;2022-09-29T11:36:19;97775.23;;;12.75;76.66
34235;BME280;20500;49.856;20.290;2022-09-29T11:39:39;97774.59;;;12.74;76.85
34235;BME280;20500;49.856;20.290;2022-09-29T11:43:05;97771.08;;;12.73;76.64
34235;BME280;20500;49.856;20.290;2022-09-29T11:46:26;97775.52;;;12.72;76.49
34235;BME280;20500;49.856;20.290;2022-09-29T11:49:52;97775.58;;;12.70;76.57
34235;BME280;20500;49.856;20.290;2022-09-29T11:53:14;97778.62;;;12.67;76.38
34235;BME280;20500;49.856;20.290;2022-09-29T11:56:36;97779.45;;;12.64;76.33
34235;BME280;20500;49.856;20.290;2022-09-29T11:59:59;97781.05;;;12.60;76.18
34235;BME280;20500;49.856;20.290;2022-09-29T12:03:29;97782.48;;;12.56;76.13
34235;BME280;20500;49.856;20.290;2022-09-29T12:06:53;97779.96;;;12.48;75.81
34235;BME280;20500;49.856;20.290;2022-09-29T12:10:18;97773.15;;;12.37;75.70
34235;BME280;20500;49.856;20.290;2022-09-29T12:13:39;97771.27;;;12.33;75.84
34235;BME280;20500;49.856;20.290;2022-09-29T12:16:53;97763.72;;;12.31;75.99
34235;BME280;20500;49.856;20.290;2022-09-29T12:20:12;97760.30;;;12.31;75.99
34235;BME280;20500;49.856;20.290;2022-09-29T12:23:21;97762.04;;;12.31;75.89
34235;BME280;20500;49.856;20.290;2022-09-29T12:26:31;97763.98;;;12.26;75.74
34235;BME280;20500;49.856;20.290;2022-09-29T12:29:40;97772.55;;;12.25;75.82
34235;BME280;20500;49.856;20.290;2022-09-29T12:32:51;97785.98;;;12.26;75.71
34235;BME280;20500;49.856;20.290;2022-09-29T12:36:15;97794.60;;;12.28;75.66
34235;BME280;20500;49.856;20.290;2022-09-29T12:39:47;97798.89;;;12.23;75.43
34235;BME280;20500;49.856;20.290;2022-09-29T12:43:12;97791.80;;;12.09;75.45
34235;BME280;20500;49.856;20.290;2022-09-29T12:46:23;97791.69;;;11.97;75.31
34235;BME280;20500;49.856;20.290;2022-09-29T12:49:36;97793.54;;;11.96;75.65
34235;BME280;20500;49.856;20.290;2022-09-29T12:52:47;97791.13;;;11.99;75.49
34235;BME280;20500;49.856;20.290;2022-09-29T12:56:01;97793.08;;;12.00;75.41
34235;BME280;20500;49.856;20.290;2022-09-29T12:59:13;97795.89;;;12.02;75.74
34235;BME280;20500;49.856;20.290;2022-09-29T13:02:37;97790.38;;;12.08;75.54
34235;BME280;20500;49.856;20.290;2022-09-29T13:06:17;97796.57;;;12.09;75.60
34235;BME280;20500;49.856;20.290;2022-09-29T13:09:51;97794.60;;;12.10;75.28
34235;BME280;20500;49.856;20.290;2022-09-29T13:16:56;97803.43;;;12.01;75.39
34235;BME280;20500;49.856;20.290;2022-09-29T13:20:24;97800.72;;;11.96;75.26
34235;BME280;20500;49.856;20.290;2022-09-29T13:23:50;97800.00;;;11.90;75.29
34235;BME280;20500;49.856;20.290;2022-09-29T13:27:21;97796.77;;;11.85;75.39
34235;BME280;20500;49.856;20.290;2022-09-29T13:30:34;97792.56;;;11.86;75.57
34235;BME280;20500;49.856;20.290;2022-09-29T13:33:47;97797.45;;;11.85;75.46
34235;BME280;20500;49.856;20.290;2022-09-29T13:37:06;97801.45;;;11.88;75.61
34235;BME280;20500;49.856;20.290;2022-09-29T13:40:25;97808.29;;;11.93;75.64
34235;BME280;20500;49.856;20.290;2022-09-29T13:44:05;97810.08;;;12.00;75.64
34235;BME280;20500;49.856;20.290;2022-09-29T13:47:30;97808.80;;;12.04;75.30
34235;BME280;20500;49.856;20.290;2022-09-29T13:50:45;97814.98;;;12.02;75.52
34235;BME280;20500;49.856;20.290;2022-09-29T13:54:26;97818.49;;;12.02;75.46
34235;BME280;20500;49.856;20.290;2022-09-29T13:57:33;97820.45;;;12.00;75.49
34235;BME280;20500;49.856;20.290;2022-09-29T14:00:37;97819.96;;;11.97;75.45
34235;BME280;20500;49.856;20.290;2022-09-29T14:03:48;97823.04;;;11.94;75.56
34235;BME280;20500;49.856;20.290;2022-09-29T14:06:59;97819.23;;;11.93;75.52
34235;BME280;20500;49.856;20.290;2022-09-29T14:10:18;97814.81;;;11.89;75.47
34235;BME280;20500;49.856;20.290;2022-09-29T14:13:30;97814.84;;;11.84;75.47
34235;BME280;20500;49.856;20.290;2022-09-29T14:16:50;97820.62;;;11.77;75.47
34235;BME280;20500;49.856;20.290;2022-09-29T14:20:05;97825.42;;;11.74;75.38
34235;BME280;20500;49.856;20.290;2022-09-29T14:23:13;97820.22;;;11.67;75.64
34235;BME280;20500;49.856;20.290;2022-09-29T14:26:48;97823.98;;;11.70;75.81
34235;BME280;20500;49.856;20.290;2022-09-29T14:30:05;97835.46;;;11.72;75.76
34235;BME280;20500;49.856;20.290;2022-09-29T14:33:18;97834.33;;;11.71;75.63
34235;BME280;20500;49.856;20.290;2022-09-29T14:36:26;97829.73;;;11.69;75.64
34235;BME280;20500;49.856;20.290;2022-09-29T14:39:40;97837.84;;;11.68;75.73
34235;BME280;20500;49.856;20.290;2022-09-29T14:43:14;97837.71;;;11.66;75.70
34235;BME280;20500;49.856;20.290;2022-09-29T14:50:41;97843.30;;;11.59;75.68
34235;BME280;20500;49.856;20.290;2022-09-29T14:54:16;97850.59;;;11.59;75.86
34235;BME280;20500;49.856;20.290;2022-09-29T14:57:42;97852.95;;;11.60;75.75
34235;BME280;20500;49.856;20.290;2022-09-29T15:01:03;97849.86;;;11.55;75.91
34235;BME280;20500;49.856;20.290;2022-09-29T15:04:15;97858.90;;;11.53;75.77
34235;BME280;20500;49.856;20.290;2022-09-29T15:07:24;97862.45;;;11.54;76.19
34235;BME280;20500;49.856;20.290;2022-09-29T15:10:37;97866.58;;;11.52;76.02
34235;BME280;20500;49.856;20.290;2022-09-29T15:13:45;97873.98;;;11.45;76.23
34235;BME280;20500;49.856;20.290;2022-09-29T15:17:01;97881.35;;;11.38;75.95
34235;BME280;20500;49.856;20.290;2022-09-29T15:20:17;97888.61;;;11.36;76.15
34235;BME280;20500;49.856;20.290;2022-09-29T15:27:14;97908.27;;;11.36;76.17
34235;BME280;20500;49.856;20.290;2022-09-29T15:30:21;97917.39;;;11.34;76.27
34235;BME280;20500;49.856;20.290;2022-09-29T15:33:29;97918.48;;;11.31;76.31
34235;BME280;20500;49.856;20.290;2022-09-29T15:36:38;97921.45;;;11.32;76.36
34235;BME280;20500;49.856;20.290;2022-09-29T15:39:48;97921.59;;;11.38;76.52
34235;BME280;20500;49.856;20.290;2022-09-29T15:42:56;97918.92;;;11.42;76.62
34235;BME280;20500;49.856;20.290;2022-09-29T15:46:12;97919.55;;;11.46;76.54
34235;BME280;20500;49.856;20.290;2022-09-29T15:49:21;97914.77;;;11.47;76.45
34235;BME280;20500;49.856;20.290;2022-09-29T15:52:28;97920.30;;;11.47;76.39
34235;BME280;20500;49.856;20.290;2022-09-29T15:55:35;97924.58;;;11.47;76.46
34235;BME280;20500;49.856;20.290;2022-09-29T15:58:45;97931.29;;;11.49;76.53
34235;BME280;20500;49.856;20.290;2022-09-29T16:01:52;97928.22;;;11.50;76.78
34235;BME280;20500;49.856;20.290;2022-09-29T16:05:10;97930.80;;;11.51;76.74
34235;BME280;20500;49.856;20.290;2022-09-29T16:08:20;97937.56;;;11.51;76.75
34235;BME280;20500;49.856;20.290;2022-09-29T16:11:32;97943.17;;;11.51;76.82
34235;BME280;20500;49.856;20.290;2022-09-29T16:14:39;97943.56;;;11.49;76.62
34235;BME280;20500;49.856;20.290;2022-09-29T16:17:49;97943.69;;;11.48;76.78
34235;BME280;20500;49.856;20.290;2022-09-29T16:20:57;97932.05;;;11.43;76.64
34235;BME280;20500;49.856;20.290;2022-09-29T16:24:10;97915.49;;;11.33;76.59
34235;BME280;20500;49.856;20.290;2022-09-29T16:27:45;97912.25;;;11.24;76.47
34235;BME280;20500;49.856;20.290;2022-09-29T16:31:04;97921.39;;;11.14;76.61
34235;BME280;20500;49.856;20.290;2022-09-29T16:34:25;97934.13;;;11.14;76.84
34235;BME280;20500;49.856;20.290;2022-09-29T16:37:32;97936.67;;;11.15;76.74
34235;BME280;20500;49.856;20.290;2022-09-29T16:40:40;97945.42;;;11.17;76.73
34235;BME280;20500;49.856;20.290;2022-09-29T16:43:47;97949.49;;;11.16;76.95
34235;BME280;20500;49.856;20.290;2022-09-29T16:46:56;97951.02;;;11.18;76.94
34235;BME280;20500;49.856;20.290;2022-09-29T16:50:08;97950.79;;;11.18;76.96
34235;BME280;20500;49.856;20.290;2022-09-29T16:53:25;97954.38;;;11.17;77.03
34235;BME280;20500;49.856;20.290;2022-09-29T16:56:33;97964.70;;;11.16;76.95
34235;BME280;20500;49.856;20.290;2022-09-29T16:59:40;97971.73;;;11.17;76.86
34235;BME280;20500;49.856;20.290;2022-09-29T17:02:46;97973.64;;;11.15;76.97
34235;BME280;20500;49.856;20.290;2022-09-29T17:05:55;97972.00;;;11.13;77.14